createdAt,value
2022-11-25T05:01:05.203Z,0.68
2022-11-25T05:02:05.034Z,0.61
2022-11-25T05:03:05.027Z,0.55
2022-11-25T05:04:04.966Z,0.50
2022-11-25T05:05:04.897Z,0.47
2022-11-25T05:06:04.907Z,0.42
2022-11-25T05:07:04.994Z,0.41
2022-11-25T05:08:12.925Z,0.38
2022-11-25T05:09:12.771Z,0.35
2022-11-25T05:10:04.923Z,0.35
2022-11-25T05:11:04.823Z,0.33
2022-11-25T05:12:04.840Z,0.32
2022-11-25T05:13:05.002Z,0.29
2022-11-25T05:14:04.863Z,0.28
2022-11-25T05:15:04.841Z,0.21
2022-11-25T05:16:11.858Z,0.17
2022-11-25T05:17:04.807Z,0.15
2022-11-25T05:18:04.755Z,0.14
2022-11-25T05:19:04.938Z,0.14
2022-11-25T05:20:04.725Z,0.13
2022-11-25T05:21:04.693Z,0.14
2022-11-25T05:22:04.704Z,0.15
2022-11-25T05:23:04.669Z,0.14
2022-11-25T05:24:04.674Z,0.10
2022-11-25T05:25:05.114Z,0.11
2022-11-25T05:26:04.704Z,0.08
2022-11-25T05:27:04.624Z,0.08
2022-11-25T05:28:04.638Z,0.08
2022-11-25T05:29:04.602Z,0.07
2022-11-25T05:30:04.619Z,0.08
2022-11-25T05:31:05.218Z,0.08
2022-11-25T05:32:04.600Z,0.04
2022-11-25T05:33:04.550Z,0.04
2022-11-25T05:34:04.563Z,0.07
2022-11-25T05:35:04.519Z,0.04
2022-11-25T05:36:04.537Z,0.03
2022-11-25T05:37:04.541Z,0.03
2022-11-25T05:38:04.518Z,0.07
2022-11-25T05:39:04.469Z,0.03
2022-11-25T05:40:04.573Z,0.00
2022-11-25T05:41:04.467Z,-0.01
2022-11-25T05:42:04.451Z,-0.01
2022-11-25T05:43:04.886Z,-0.03
2022-11-25T05:44:04.420Z,-0.03
2022-11-25T05:45:04.425Z,-0.04
2022-11-25T05:46:04.843Z,-0.07
2022-11-25T05:47:04.415Z,-0.10
2022-11-25T05:48:04.363Z,-0.15
2022-11-25T05:49:04.376Z,-0.18
2022-11-25T05:50:04.366Z,-0.15
2022-11-25T05:51:04.361Z,-0.14
2022-11-25T05:52:04.500Z,-0.05
2022-11-25T05:53:04.314Z,0.00
2022-11-25T05:54:04.283Z,0.03
2022-11-25T05:55:04.335Z,0.02
2022-11-25T05:56:04.428Z,-0.03
2022-11-25T05:57:04.280Z,-0.10
2022-11-25T05:58:04.421Z,-0.11
2022-11-25T05:59:04.321Z,-0.18
2022-11-25T06:00:04.222Z,-0.15
2022-11-25T06:01:04.222Z,-0.16
2022-11-25T06:02:04.315Z,-0.18
2022-11-25T06:03:04.291Z,-0.15
2022-11-25T06:04:04.208Z,-0.14
2022-11-25T06:05:04.175Z,-0.14
2022-11-25T06:06:04.146Z,-0.08
2022-11-25T06:07:04.160Z,-0.08
2022-11-25T06:08:04.168Z,-0.10
2022-11-25T06:09:04.158Z,-0.10
2022-11-25T06:10:04.096Z,-0.10
2022-11-25T06:11:04.087Z,-0.10
2022-11-25T06:12:04.070Z,-0.10
2022-11-25T06:13:04.065Z,-0.14
2022-11-25T06:14:04.105Z,-0.15
2022-11-25T06:15:04.054Z,-0.15
2022-11-25T06:16:07.719Z,-0.15
2022-11-25T06:17:04.045Z,-0.11
2022-11-25T06:18:04.012Z,-0.08
2022-11-25T06:19:04.005Z,-0.07
2022-11-25T06:20:04.181Z,-0.08
2022-11-25T06:21:03.983Z,-0.10
2022-11-25T06:22:03.950Z,-0.10
2022-11-25T06:23:03.952Z,-0.11
2022-11-25T06:24:03.911Z,-0.10
2022-11-25T06:25:04.268Z,-0.10
2022-11-25T06:26:03.953Z,-0.07
2022-11-25T06:27:03.919Z,-0.04
2022-11-25T06:28:13.731Z,-0.01
2022-11-25T06:29:04.872Z,0.03
2022-11-25T06:30:03.839Z,0.03
2022-11-25T06:31:03.887Z,0.07
2022-11-25T06:32:04.017Z,0.11
2022-11-25T06:33:03.821Z,0.13
2022-11-25T06:34:03.789Z,0.13
2022-11-25T06:35:03.798Z,0.11
2022-11-25T06:36:03.796Z,0.13
2022-11-25T06:37:03.775Z,0.17
2022-11-25T06:38:04.157Z,0.17
2022-11-25T06:39:03.758Z,0.18
2022-11-25T06:40:03.776Z,0.14
2022-11-25T06:41:03.731Z,0.14
2022-11-25T06:42:03.695Z,0.15
2022-11-25T06:43:03.705Z,0.17
2022-11-25T06:44:03.975Z,0.17
2022-11-25T06:45:03.695Z,0.20
2022-11-25T06:46:03.728Z,0.20
2022-11-25T06:47:03.665Z,0.21
2022-11-25T06:48:03.623Z,0.28
2022-11-25T06:49:03.635Z,0.33
2022-11-25T06:50:03.630Z,0.36
2022-11-25T06:51:03.615Z,0.41
2022-11-25T06:52:03.673Z,0.46
2022-11-25T06:53:03.572Z,0.50
2022-11-25T06:54:03.554Z,0.53
2022-11-25T06:55:03.553Z,0.57
2022-11-25T06:56:03.513Z,0.60
2022-11-25T06:57:03.530Z,0.61
2022-11-25T06:58:28.418Z,0.61
2022-11-25T06:59:04.504Z,0.62
2022-11-25T07:00:03.481Z,0.62
2022-11-25T07:01:03.479Z,0.61
2022-11-25T07:02:03.520Z,0.60
2022-11-25T07:03:03.493Z,0.60
2022-11-25T07:04:03.541Z,0.60
2022-11-25T07:05:03.417Z,0.60
2022-11-25T07:06:03.397Z,0.60
2022-11-25T07:07:03.396Z,0.60
2022-11-25T07:08:03.390Z,0.57
2022-11-25T07:09:03.384Z,0.55
2022-11-25T07:10:03.494Z,0.51
2022-11-25T07:11:03.355Z,0.55
2022-11-25T07:12:03.340Z,0.55
2022-11-25T07:13:03.325Z,0.55
2022-11-25T07:14:03.294Z,0.57
2022-11-25T07:15:03.300Z,0.61
2022-11-25T07:16:03.380Z,0.62
2022-11-25T07:17:07.392Z,0.65
2022-11-25T07:18:04.242Z,0.66
2022-11-25T07:19:03.264Z,0.68
2022-11-25T07:20:03.258Z,0.72
2022-11-25T07:21:03.231Z,0.76
2022-11-25T07:22:03.381Z,0.80
2022-11-25T07:23:03.210Z,0.87
2022-11-25T07:24:03.173Z,0.91
2022-11-25T07:25:03.251Z,0.98
2022-11-25T07:26:03.148Z,1.08
2022-11-25T07:27:03.160Z,1.14
2022-11-25T07:28:03.752Z,1.23
2022-11-25T07:29:03.129Z,1.32
2022-11-25T07:30:54.463Z,1.40
2022-11-25T07:31:27.256Z,1.47
2022-11-25T07:32:10.081Z,1.55
2022-11-25T07:33:04.182Z,1.63
2022-11-25T07:34:03.048Z,1.72
2022-11-25T07:35:03.047Z,1.80
2022-11-25T07:36:03.023Z,1.86
2022-11-25T07:37:03.036Z,1.91
2022-11-25T07:38:03.045Z,1.99
2022-11-25T07:39:03.036Z,2.05
2022-11-25T07:40:02.979Z,2.07
2022-11-25T07:41:03.165Z,2.12
2022-11-25T07:42:02.945Z,2.16
2022-11-25T07:43:02.953Z,2.20
2022-11-25T07:44:03.003Z,2.25
2022-11-25T07:45:02.938Z,2.30
2022-11-25T07:46:02.930Z,2.34
2022-11-25T07:47:03.333Z,2.36
2022-11-25T07:48:02.867Z,2.39
2022-11-25T07:49:02.875Z,2.39
2022-11-25T07:50:02.841Z,2.42
2022-11-25T07:51:02.861Z,2.45
2022-11-25T07:52:02.819Z,2.48
2022-11-25T07:53:02.903Z,2.52
2022-11-25T07:54:02.791Z,2.54
2022-11-25T07:55:02.811Z,2.54
2022-11-25T07:56:02.770Z,2.56
2022-11-25T07:57:02.770Z,2.57
2022-11-25T07:58:02.760Z,2.57
2022-11-25T07:59:02.812Z,2.61
2022-11-25T08:00:02.718Z,2.67
2022-11-25T08:01:02.720Z,2.74
2022-11-25T08:02:02.795Z,2.81
2022-11-25T08:03:02.762Z,2.87
2022-11-25T08:04:02.665Z,2.93
2022-11-25T08:05:03.478Z,2.97
2022-11-25T08:06:02.648Z,3.00
2022-11-25T08:07:02.657Z,3.06
2022-11-25T08:08:02.713Z,3.14
2022-11-25T08:09:02.659Z,3.20
2022-11-25T08:10:02.657Z,3.21
2022-11-25T08:11:02.648Z,3.23
2022-11-25T08:12:02.566Z,3.28
2022-11-25T08:13:02.569Z,3.36
2022-11-25T08:14:02.544Z,3.43
2022-11-25T08:15:02.545Z,3.45
2022-11-25T08:16:02.641Z,3.47
2022-11-25T08:17:06.012Z,3.50
2022-11-25T08:18:02.501Z,3.55
2022-11-25T08:19:02.493Z,3.60
2022-11-25T08:20:02.462Z,3.61
2022-11-25T08:21:02.474Z,3.62
2022-11-25T08:22:02.446Z,3.62
2022-11-25T08:23:02.501Z,3.66
2022-11-25T08:24:02.492Z,3.65
2022-11-25T08:25:02.452Z,3.58
2022-11-25T08:26:02.389Z,3.51
2022-11-25T08:27:02.422Z,3.45
2022-11-25T08:28:02.390Z,3.42
2022-11-25T08:29:02.460Z,3.39
2022-11-25T08:30:02.339Z,3.36
2022-11-25T08:31:02.423Z,3.36
2022-11-25T08:32:05.141Z,3.33
2022-11-25T08:33:03.318Z,3.33
2022-11-25T08:34:02.279Z,3.32
2022-11-25T08:35:02.393Z,3.32
2022-11-25T08:36:02.259Z,3.31
2022-11-25T08:37:02.277Z,3.33
2022-11-25T08:38:02.238Z,3.33
2022-11-25T08:39:02.301Z,3.35
2022-11-25T08:40:02.400Z,3.40
2022-11-25T08:41:02.241Z,3.40
2022-11-25T08:42:02.892Z,3.43
2022-11-25T08:43:02.215Z,3.45
2022-11-25T08:44:02.156Z,3.48
2022-11-25T08:45:02.358Z,3.48
2022-11-25T08:46:02.146Z,3.50
2022-11-25T08:47:02.200Z,3.52
2022-11-25T08:48:02.116Z,3.57
2022-11-25T08:49:02.122Z,3.60
2022-11-25T08:50:02.079Z,3.62
2022-11-25T08:51:02.144Z,3.68
2022-11-25T08:52:02.069Z,3.75
2022-11-25T08:53:09.065Z,3.80
2022-11-25T08:54:02.028Z,3.88
2022-11-25T08:55:02.046Z,3.93
2022-11-25T08:56:09.119Z,3.98
2022-11-25T08:57:09.034Z,4.05
2022-11-25T08:58:08.996Z,4.11
2022-11-25T08:59:01.981Z,4.18
2022-11-25T09:00:01.940Z,4.27
2022-11-25T09:01:01.960Z,4.34
2022-11-25T09:02:02.578Z,4.41
2022-11-25T09:03:04.351Z,4.47
2022-11-25T09:04:01.898Z,4.51
2022-11-25T09:05:01.913Z,4.55
2022-11-25T09:06:01.894Z,4.60
2022-11-25T09:07:01.934Z,4.66
2022-11-25T09:08:01.980Z,4.73
2022-11-25T09:09:02.016Z,4.78
2022-11-25T09:10:01.847Z,4.80
2022-11-25T09:11:01.913Z,4.84
2022-11-25T09:12:01.806Z,4.82
2022-11-25T09:13:01.808Z,4.82
2022-11-25T09:14:01.895Z,4.78
2022-11-25T09:15:01.786Z,4.80
2022-11-25T09:16:01.789Z,4.78
2022-11-25T09:17:01.755Z,4.78
2022-11-25T09:18:01.726Z,4.85
2022-11-25T09:19:01.740Z,4.94
2022-11-25T09:20:01.764Z,5.03
2022-11-25T09:21:01.716Z,5.12
2022-11-25T09:22:01.685Z,5.22
2022-11-25T09:23:01.694Z,5.31
2022-11-25T09:24:01.659Z,5.35
2022-11-25T09:25:01.666Z,5.40
2022-11-25T09:26:01.854Z,5.49
2022-11-25T09:27:01.642Z,5.51
2022-11-25T09:28:01.602Z,5.54
2022-11-25T09:29:01.611Z,5.61
2022-11-25T09:30:01.584Z,5.71
2022-11-25T09:31:01.634Z,5.83
2022-11-25T09:32:01.667Z,5.91
2022-11-25T09:33:01.572Z,5.93
2022-11-25T09:34:01.521Z,5.79
2022-11-25T09:35:01.530Z,5.86
2022-11-25T09:36:01.507Z,6.00
2022-11-25T09:37:01.519Z,6.12
2022-11-25T09:38:01.527Z,6.25
2022-11-25T09:39:01.483Z,6.38
2022-11-25T09:40:01.447Z,6.54
2022-11-25T09:41:01.464Z,6.64
2022-11-25T09:42:01.438Z,6.69
2022-11-25T09:43:01.420Z,6.76
2022-11-25T09:44:01.488Z,6.91
2022-11-25T09:45:01.397Z,7.07
2022-11-25T09:46:01.407Z,7.16
2022-11-25T09:47:01.386Z,7.20
2022-11-25T09:48:01.366Z,7.30
2022-11-25T09:49:01.327Z,7.31
2022-11-25T09:50:01.401Z,7.31
2022-11-25T09:51:01.314Z,7.43
2022-11-25T09:52:01.306Z,7.46
2022-11-25T09:53:01.275Z,7.43
2022-11-25T09:54:01.295Z,7.43
2022-11-25T09:55:01.256Z,7.45
2022-11-25T09:56:01.756Z,7.46
2022-11-25T09:57:01.226Z,7.53
2022-11-25T09:58:01.263Z,7.57
2022-11-25T09:59:01.206Z,7.60
2022-11-25T10:00:01.215Z,7.63
2022-11-25T10:01:01.225Z,7.64
2022-11-25T10:02:01.303Z,7.69
2022-11-25T10:03:01.321Z,7.77
2022-11-25T10:04:01.183Z,7.83
2022-11-25T10:05:01.125Z,7.89
2022-11-25T10:06:01.177Z,7.97
2022-11-25T10:07:01.255Z,8.05
2022-11-25T10:08:01.123Z,8.11
2022-11-25T10:09:01.085Z,8.02
2022-11-25T10:10:01.101Z,8.01
2022-11-25T10:11:01.072Z,7.98
2022-11-25T10:12:01.080Z,8.05
2022-11-25T10:13:01.211Z,8.10
2022-11-25T10:14:01.035Z,8.16
2022-11-25T10:15:01.013Z,8.20
2022-11-25T10:16:01.063Z,8.20
2022-11-25T10:17:00.981Z,8.19
2022-11-25T10:18:00.981Z,8.19
2022-11-25T10:19:01.178Z,8.20
2022-11-25T10:20:01.017Z,8.25
2022-11-25T10:21:00.931Z,8.25
2022-11-25T10:22:00.938Z,8.20
2022-11-25T10:23:00.897Z,8.23
2022-11-25T10:24:00.917Z,8.26
2022-11-25T10:25:00.963Z,8.28
2022-11-25T10:26:00.887Z,8.23
2022-11-25T10:27:00.861Z,8.33
2022-11-25T10:28:00.857Z,8.43
2022-11-25T10:29:00.828Z,8.40
2022-11-25T10:30:00.827Z,8.44
2022-11-25T10:31:01.380Z,8.50
2022-11-25T10:32:00.820Z,8.58
2022-11-25T10:33:02.574Z,8.62
2022-11-25T10:34:00.783Z,8.65
2022-11-25T10:35:00.747Z,8.70
2022-11-25T10:36:00.775Z,8.77
2022-11-25T10:37:00.784Z,8.83
2022-11-25T10:38:00.734Z,8.91
2022-11-25T10:39:00.705Z,8.89
2022-11-25T10:40:00.717Z,8.86
2022-11-25T10:41:00.677Z,8.91
2022-11-25T10:42:00.704Z,8.89
2022-11-25T10:43:00.810Z,8.86
2022-11-25T10:44:00.823Z,8.81
2022-11-25T10:45:00.621Z,8.80
2022-11-25T10:46:00.654Z,8.79
2022-11-25T10:47:14.606Z,8.68
2022-11-25T10:48:01.652Z,8.71
2022-11-25T10:49:00.582Z,8.73
2022-11-25T10:50:00.580Z,8.76
2022-11-25T10:51:00.771Z,8.81
2022-11-25T10:52:00.563Z,8.83
2022-11-25T10:53:00.522Z,8.83
2022-11-25T10:54:00.531Z,8.89
2022-11-25T10:55:00.504Z,8.91
2022-11-25T10:56:00.540Z,8.89
2022-11-25T10:57:00.687Z,8.94
2022-11-25T10:58:00.492Z,8.92
2022-11-25T10:59:00.474Z,8.94
2022-11-25T11:00:00.462Z,8.92
2022-11-25T11:01:00.430Z,8.94
2022-11-25T11:02:00.517Z,8.92
2022-11-25T11:03:00.747Z,8.89
2022-11-25T11:04:00.424Z,8.87
2022-11-25T11:05:00.482Z,8.84
2022-11-25T11:06:00.393Z,8.76
2022-11-25T11:07:00.349Z,8.68
2022-11-25T11:08:00.436Z,8.71
2022-11-25T11:09:00.397Z,8.73
2022-11-25T11:10:00.347Z,8.74
2022-11-25T11:11:00.356Z,8.77
2022-11-25T11:12:00.339Z,8.80
2022-11-25T11:13:00.295Z,8.89
2022-11-25T11:14:00.296Z,8.91
2022-11-25T11:15:00.314Z,8.94
2022-11-25T11:16:57.109Z,9.04
2022-11-25T11:17:57.069Z,9.05
2022-11-25T11:19:04.576Z,9.10
2022-11-25T11:20:04.834Z,9.08
2022-11-25T11:21:04.580Z,9.02
2022-11-25T11:22:04.531Z,8.99
2022-11-25T11:22:57.020Z,8.99
2022-11-25T11:24:04.517Z,8.98
2022-11-25T11:24:56.994Z,8.99
2022-11-25T11:25:57.014Z,8.95
2022-11-25T11:26:56.987Z,8.91
2022-11-25T11:27:56.963Z,8.86
2022-11-25T11:28:56.963Z,8.83
2022-11-25T11:29:56.912Z,8.84
2022-11-25T11:30:57.017Z,8.84
2022-11-25T11:31:56.891Z,8.84
2022-11-25T11:32:56.909Z,8.83
2022-11-25T11:34:04.404Z,8.86
2022-11-25T11:34:56.883Z,8.87
2022-11-25T11:35:56.871Z,8.92
2022-11-25T11:36:56.899Z,8.92
2022-11-25T11:37:56.827Z,8.92
2022-11-25T11:38:56.851Z,8.92
2022-11-25T11:39:56.873Z,8.94
2022-11-25T11:40:56.821Z,8.95
2022-11-25T11:41:56.790Z,8.99
2022-11-25T11:42:56.867Z,9.02
2022-11-25T11:43:56.747Z,9.10
2022-11-25T11:44:56.757Z,9.13
2022-11-25T11:45:56.732Z,9.14
2022-11-25T11:46:56.801Z,9.18
2022-11-25T11:47:56.724Z,9.21
2022-11-25T11:48:56.893Z,9.23
2022-11-25T11:49:56.693Z,9.23
2022-11-25T11:50:56.704Z,9.23
2022-11-25T11:51:56.667Z,9.24
2022-11-25T11:52:56.655Z,9.26
2022-11-25T11:53:56.639Z,9.29
2022-11-25T11:54:56.681Z,9.28
2022-11-25T11:56:27.020Z,9.28
2022-11-25T11:56:57.623Z,9.29
2022-11-25T11:57:56.718Z,9.31
2022-11-25T11:58:56.575Z,9.31
2022-11-25T11:59:56.564Z,9.28
2022-11-25T12:00:56.578Z,9.23
2022-11-25T12:01:56.592Z,9.21
2022-11-25T12:02:56.698Z,9.18
2022-11-25T12:03:56.776Z,9.13
2022-11-25T12:04:56.522Z,9.13
2022-11-25T12:05:56.475Z,9.13
2022-11-25T12:06:56.495Z,9.10
2022-11-25T12:07:56.485Z,9.02
2022-11-25T12:08:56.475Z,9.02
2022-11-25T12:09:56.470Z,8.99
2022-11-25T12:10:56.458Z,8.94
2022-11-25T12:11:56.424Z,8.86
2022-11-25T12:12:56.508Z,8.73
2022-11-25T12:14:00.680Z,8.58
2022-11-25T12:14:56.380Z,8.48
2022-11-25T12:15:56.444Z,8.36
2022-11-25T12:16:56.372Z,8.23
2022-11-25T12:17:56.341Z,8.16
2022-11-25T12:18:56.781Z,8.08
2022-11-25T12:19:56.354Z,8.04
2022-11-25T12:20:56.320Z,8.01
2022-11-25T12:21:56.287Z,8.01
2022-11-25T12:22:56.301Z,7.98
2022-11-25T12:23:56.269Z,7.98
2022-11-25T12:24:56.399Z,8.00
2022-11-25T12:25:56.232Z,7.97
2022-11-25T12:26:56.229Z,7.95
2022-11-25T12:27:56.201Z,7.92
2022-11-25T12:28:56.206Z,7.89
2022-11-25T12:29:56.178Z,7.93
2022-11-25T12:31:00.487Z,7.95
2022-11-25T12:31:57.200Z,7.98
2022-11-25T12:32:56.159Z,8.01
2022-11-25T12:33:56.139Z,8.05
2022-11-25T12:34:56.136Z,8.07
2022-11-25T12:35:56.104Z,8.10
2022-11-25T12:36:56.168Z,8.15
2022-11-25T12:37:56.280Z,8.18
2022-11-25T12:38:56.084Z,8.23
2022-11-25T12:39:56.053Z,8.28
2022-11-25T12:40:56.080Z,8.34
2022-11-25T12:41:56.085Z,8.43
2022-11-25T12:42:56.104Z,8.50
2022-11-25T12:43:56.201Z,8.56
2022-11-25T12:44:56.008Z,8.58
2022-11-25T12:45:56.029Z,8.62
2022-11-25T12:46:55.995Z,8.66
2022-11-25T12:47:55.954Z,8.70
2022-11-25T12:48:55.954Z,8.70
2022-11-25T12:49:56.007Z,8.70
2022-11-25T12:50:55.934Z,8.70
2022-11-25T12:51:55.913Z,8.70
2022-11-25T12:52:55.929Z,8.73
2022-11-25T12:53:55.879Z,8.76
2022-11-25T12:54:55.879Z,8.76
2022-11-25T12:55:56.041Z,8.76
2022-11-25T12:56:55.865Z,8.77
2022-11-25T12:57:55.829Z,8.80
2022-11-25T12:58:55.892Z,8.81
2022-11-25T13:00:17.575Z,8.87
2022-11-25T13:00:57.539Z,8.94
2022-11-25T13:01:55.954Z,8.98
2022-11-25T13:02:55.858Z,9.05
2022-11-25T13:03:55.755Z,9.10
2022-11-25T13:04:58.069Z,9.15
2022-11-25T13:05:56.717Z,9.21
2022-11-25T13:06:56.200Z,9.24
2022-11-25T13:07:55.809Z,9.28
2022-11-25T13:08:55.728Z,9.31
2022-11-25T13:09:55.671Z,9.33
2022-11-25T13:10:55.992Z,9.33
2022-11-25T13:11:56.124Z,9.33
2022-11-25T13:12:55.965Z,9.33
2022-11-25T13:13:55.971Z,9.32
2022-11-25T13:14:55.915Z,9.32
2022-11-25T13:15:55.938Z,9.31
2022-11-25T13:16:56.255Z,9.29
2022-11-25T13:17:55.697Z,9.26
2022-11-25T13:18:55.673Z,9.26
2022-11-25T13:19:55.578Z,9.24
2022-11-25T13:20:55.578Z,9.18
2022-11-25T13:21:55.524Z,9.17
2022-11-25T13:22:55.552Z,9.13
2022-11-25T13:23:55.495Z,9.10
2022-11-25T13:24:55.531Z,9.02
2022-11-25T13:25:55.478Z,9.02
2022-11-25T13:26:55.513Z,9.02
2022-11-25T13:27:55.444Z,9.02
2022-11-25T13:28:55.750Z,9.02
2022-11-25T13:29:55.412Z,9.01
2022-11-25T13:30:55.436Z,9.01
2022-11-25T13:31:58.944Z,9.01
2022-11-25T13:32:57.582Z,8.99
2022-11-25T13:33:55.393Z,8.95
2022-11-25T13:34:55.488Z,8.92
2022-11-25T13:35:55.343Z,8.91
2022-11-25T13:36:55.382Z,8.87
2022-11-25T13:37:55.325Z,8.84
2022-11-25T13:38:55.335Z,8.81
2022-11-25T13:39:55.292Z,8.79
2022-11-25T13:40:55.363Z,8.79
2022-11-25T13:41:55.344Z,8.74
2022-11-25T13:42:55.305Z,8.76
2022-11-25T13:43:58.565Z,8.71
2022-11-25T13:44:56.291Z,8.71
2022-11-25T13:45:55.264Z,8.68
2022-11-25T13:46:55.434Z,8.63
2022-11-25T13:47:55.208Z,8.61
2022-11-25T13:48:55.300Z,8.56
2022-11-25T13:49:55.167Z,8.55
2022-11-25T13:51:10.708Z,8.53
2022-11-25T13:51:56.150Z,8.50
2022-11-25T13:52:55.150Z,8.50
2022-11-25T13:53:55.151Z,8.50
2022-11-25T13:54:55.487Z,8.50
2022-11-25T13:55:55.090Z,8.48
2022-11-25T13:56:55.118Z,8.52
2022-11-25T13:57:55.067Z,8.53
2022-11-25T13:58:55.088Z,8.53
2022-11-25T13:59:55.028Z,8.58
2022-11-25T14:00:55.539Z,8.61
2022-11-25T14:01:55.084Z,8.63
2022-11-25T14:02:55.176Z,8.66
2022-11-25T14:03:55.033Z,8.70
2022-11-25T14:04:55.074Z,8.73
2022-11-25T14:05:54.970Z,8.76
2022-11-25T14:06:55.167Z,8.79
2022-11-25T14:07:54.988Z,8.81
2022-11-25T14:08:54.977Z,8.84
2022-11-25T14:09:54.916Z,8.86
2022-11-25T14:10:54.935Z,8.89
2022-11-25T14:11:54.893Z,8.94
2022-11-25T14:12:54.985Z,8.96
2022-11-25T14:13:54.863Z,8.98
2022-11-25T14:14:54.865Z,8.98
2022-11-25T14:15:54.912Z,9.01
2022-11-25T14:16:55.025Z,9.01
2022-11-25T14:17:54.832Z,8.99
2022-11-25T14:19:35.122Z,8.95
2022-11-25T14:19:56.123Z,8.91
2022-11-25T14:20:54.812Z,8.87
2022-11-25T14:21:54.774Z,8.83
2022-11-25T14:22:54.768Z,8.79
2022-11-25T14:23:54.733Z,8.76
2022-11-25T14:24:55.415Z,8.71
2022-11-25T14:25:54.771Z,8.65
2022-11-25T14:26:54.749Z,8.58
2022-11-25T14:27:56.364Z,8.52
2022-11-25T14:28:54.757Z,8.44
2022-11-25T14:29:54.668Z,8.36
2022-11-25T14:30:54.849Z,8.26
2022-11-25T14:31:54.745Z,8.20
2022-11-25T14:32:54.638Z,8.19
2022-11-25T14:33:54.633Z,8.15
2022-11-25T14:34:54.635Z,8.10
2022-11-25T14:35:54.639Z,8.04
2022-11-25T14:36:54.653Z,8.04
2022-11-25T14:37:54.569Z,8.04
2022-11-25T14:38:54.612Z,8.00
2022-11-25T14:39:54.540Z,7.97
2022-11-25T14:40:55.043Z,7.93
2022-11-25T14:41:54.516Z,7.90
2022-11-25T14:42:54.558Z,7.85
2022-11-25T14:43:54.479Z,7.82
2022-11-25T14:44:54.699Z,7.80
2022-11-25T14:45:54.548Z,7.77
2022-11-25T14:46:54.496Z,7.69
2022-11-25T14:47:54.456Z,7.69
2022-11-25T14:48:54.443Z,7.69
2022-11-25T14:50:18.848Z,7.67
2022-11-25T14:50:55.495Z,7.64
2022-11-25T14:51:54.445Z,7.64
2022-11-25T14:52:54.444Z,7.61
2022-11-25T14:53:54.357Z,7.60
2022-11-25T14:54:54.373Z,7.53
2022-11-25T14:55:54.342Z,7.52
2022-11-25T14:56:54.581Z,7.48
2022-11-25T14:57:54.383Z,7.46
2022-11-25T14:58:54.319Z,7.42
2022-11-25T14:59:54.283Z,7.40
2022-11-25T15:00:54.286Z,7.39
2022-11-25T15:01:54.326Z,7.35
2022-11-25T15:02:54.560Z,7.34
2022-11-25T15:03:54.286Z,7.32
2022-11-25T15:04:54.301Z,7.31
2022-11-25T15:05:54.201Z,7.31
2022-11-25T15:06:54.225Z,7.30
2022-11-25T15:07:54.301Z,7.31
2022-11-25T15:08:54.341Z,7.31
2022-11-25T15:09:54.185Z,7.31
2022-11-25T15:10:54.184Z,7.31
2022-11-25T15:11:54.123Z,7.32
2022-11-25T15:12:54.193Z,7.35
2022-11-25T15:13:54.095Z,7.35
2022-11-25T15:14:54.173Z,7.39
2022-11-25T15:15:54.208Z,7.40
2022-11-25T15:16:54.127Z,7.43
2022-11-25T15:17:54.077Z,7.43
2022-11-25T15:18:54.035Z,7.46
2022-11-25T15:19:54.045Z,7.46
2022-11-25T15:20:54.018Z,7.50
2022-11-25T15:22:22.096Z,7.53
2022-11-25T15:22:55.008Z,7.57
2022-11-25T15:23:54.066Z,7.58
2022-11-25T15:24:55.872Z,7.61
2022-11-25T15:25:53.981Z,7.61
2022-11-25T15:26:53.929Z,7.63
2022-11-25T15:27:54.010Z,7.68
2022-11-25T15:28:53.908Z,7.68
2022-11-25T15:29:53.915Z,7.71
2022-11-25T15:30:53.888Z,7.72
2022-11-25T15:31:54.024Z,7.72
2022-11-25T15:32:53.875Z,7.74
2022-11-25T15:33:54.606Z,7.74
2022-11-25T15:34:53.875Z,7.72
2022-11-25T15:35:53.849Z,7.72
2022-11-25T15:36:54.636Z,7.72
2022-11-25T15:37:53.805Z,7.71
2022-11-25T15:38:53.817Z,7.69
2022-11-25T15:39:53.852Z,7.67
2022-11-25T15:40:53.816Z,7.64
2022-11-25T15:41:53.770Z,7.63
2022-11-25T15:42:53.723Z,7.63
2022-11-25T15:43:53.764Z,7.61
2022-11-25T15:44:53.715Z,7.61
2022-11-25T15:45:53.748Z,7.61
2022-11-25T15:46:54.213Z,7.60
2022-11-25T15:47:53.866Z,7.57
2022-11-25T15:48:53.655Z,7.61
2022-11-25T15:49:53.673Z,7.57
2022-11-25T15:50:53.650Z,7.58
2022-11-25T15:51:53.674Z,7.61
2022-11-25T15:52:53.679Z,7.63
2022-11-25T15:53:53.623Z,7.68
2022-11-25T15:54:53.580Z,7.69
2022-11-25T15:55:53.585Z,7.74
2022-11-25T15:56:53.549Z,7.77
2022-11-25T15:57:53.616Z,7.80
2022-11-25T15:58:58.634Z,7.86
2022-11-25T15:59:54.531Z,7.89
2022-11-25T16:00:53.510Z,7.89
2022-11-25T16:01:53.592Z,7.90
2022-11-25T16:02:54.289Z,7.92
2022-11-25T16:03:53.479Z,7.92
2022-11-25T16:04:53.463Z,7.93
2022-11-25T16:05:53.459Z,7.93
2022-11-25T16:06:53.419Z,7.93
2022-11-25T16:07:53.584Z,7.92
2022-11-25T16:08:53.403Z,7.92
2022-11-25T16:09:53.406Z,7.92
2022-11-25T16:10:53.365Z,7.87
2022-11-25T16:11:53.380Z,7.86
2022-11-25T16:12:53.366Z,7.85
2022-11-25T16:13:53.614Z,7.80
2022-11-25T16:14:53.319Z,7.77
2022-11-25T16:15:53.446Z,7.72
2022-11-25T16:17:00.934Z,7.68
2022-11-25T16:18:24.542Z,7.64
2022-11-25T16:19:00.799Z,7.58
2022-11-25T16:19:53.289Z,7.53
2022-11-25T16:21:01.353Z,7.52
2022-11-25T16:21:53.243Z,7.50
2022-11-25T16:22:53.255Z,7.48
2022-11-25T16:23:53.222Z,7.46
2022-11-25T16:24:58.724Z,7.43
2022-11-25T16:25:54.200Z,7.39
2022-11-25T16:26:53.234Z,7.35
2022-11-25T16:27:53.188Z,7.31
2022-11-25T16:28:53.138Z,7.28
2022-11-25T16:29:53.151Z,7.21
2022-11-25T16:30:56.143Z,7.20
2022-11-25T16:31:54.184Z,7.16
2022-11-25T16:32:53.103Z,7.15
2022-11-25T16:33:53.101Z,7.13
2022-11-25T16:34:53.078Z,7.12
2022-11-25T16:35:53.076Z,7.07
2022-11-25T16:36:53.099Z,7.06
2022-11-25T16:37:53.053Z,7.07
2022-11-25T16:38:53.014Z,7.05
2022-11-25T16:39:53.026Z,7.02
2022-11-25T16:40:53.037Z,7.02
2022-11-25T16:41:52.990Z,7.02
2022-11-25T16:42:53.024Z,7.03
2022-11-25T16:43:54.318Z,7.03
2022-11-25T16:44:52.942Z,6.99
2022-11-25T16:45:53.008Z,6.98
2022-11-25T16:46:52.941Z,6.97
2022-11-25T16:47:52.994Z,6.97
2022-11-25T16:48:52.969Z,6.97
2022-11-25T16:49:52.878Z,6.98
2022-11-25T16:50:52.862Z,6.98
2022-11-25T16:51:52.858Z,6.94
2022-11-25T16:52:52.843Z,6.95
2022-11-25T16:53:52.825Z,6.94
2022-11-25T16:54:52.962Z,6.92
2022-11-25T16:55:52.846Z,6.94
2022-11-25T16:56:52.828Z,6.91
2022-11-25T16:57:52.839Z,6.92
2022-11-25T16:58:52.763Z,6.95
2022-11-25T16:59:58.327Z,6.97
2022-11-25T17:00:53.897Z,7.02
2022-11-25T17:01:52.990Z,7.05
2022-11-25T17:02:52.820Z,7.09
2022-11-25T17:03:52.723Z,7.10
2022-11-25T17:04:52.725Z,7.13
2022-11-25T17:05:52.678Z,7.16
2022-11-25T17:07:24.242Z,7.20
2022-11-25T17:07:53.727Z,7.21
2022-11-25T17:08:52.704Z,7.24
2022-11-25T17:09:52.641Z,7.24
2022-11-25T17:10:52.588Z,7.25
2022-11-25T17:11:52.613Z,7.25
2022-11-25T17:12:52.644Z,7.28
2022-11-25T17:13:52.588Z,7.25
2022-11-25T17:14:52.733Z,7.24
2022-11-25T17:15:52.696Z,7.24
2022-11-25T17:16:52.597Z,7.23
2022-11-25T17:17:52.581Z,7.20
2022-11-25T17:18:52.541Z,7.20
2022-11-25T17:19:52.499Z,7.17
2022-11-25T17:20:52.466Z,7.16
2022-11-25T17:21:52.475Z,7.16
2022-11-25T17:22:52.428Z,7.15
2022-11-25T17:23:55.174Z,7.13
2022-11-25T17:24:52.403Z,7.10
2022-11-25T17:25:52.426Z,7.13
2022-11-25T17:26:52.537Z,7.10
2022-11-25T17:27:52.417Z,7.09
2022-11-25T17:28:52.357Z,7.07
2022-11-25T17:29:52.888Z,7.07
2022-11-25T17:30:52.325Z,7.06
2022-11-25T17:31:57.990Z,7.06
2022-11-25T17:32:53.329Z,7.10
2022-11-25T17:33:52.316Z,7.10
2022-11-25T17:34:52.278Z,7.15
2022-11-25T17:35:52.703Z,7.15
2022-11-25T17:36:52.263Z,7.15
2022-11-25T17:37:52.263Z,7.16
2022-11-25T17:38:52.226Z,7.15
2022-11-25T17:39:52.258Z,7.16
2022-11-25T17:40:52.195Z,7.15
2022-11-25T17:41:52.407Z,7.15
2022-11-25T17:42:52.172Z,7.16
2022-11-25T17:43:52.237Z,7.16
2022-11-25T17:44:54.214Z,7.16
2022-11-25T17:45:52.184Z,7.17
2022-11-25T17:46:52.123Z,7.17
2022-11-25T17:47:52.342Z,7.17
2022-11-25T17:48:52.091Z,7.20
2022-11-25T17:49:52.157Z,7.21
2022-11-25T17:50:52.081Z,7.21
2022-11-25T17:51:52.080Z,7.23
2022-11-25T17:52:52.050Z,7.24
2022-11-25T17:53:52.140Z,7.24
2022-11-25T17:54:52.033Z,7.24
2022-11-25T17:55:52.047Z,7.28
2022-11-25T17:56:52.697Z,7.28
2022-11-25T17:57:52.000Z,7.27
2022-11-25T17:58:51.974Z,7.30
2022-11-25T17:59:52.017Z,7.31
2022-11-25T18:00:51.989Z,7.34
2022-11-25T18:01:51.994Z,7.35
2022-11-25T18:02:51.996Z,7.43
2022-11-25T18:03:51.957Z,7.43
2022-11-25T18:04:52.025Z,7.43
2022-11-25T18:05:52.108Z,7.43
2022-11-25T18:06:51.876Z,7.46
2022-11-25T18:07:51.915Z,7.48
2022-11-25T18:08:51.868Z,7.48
2022-11-25T18:09:51.857Z,7.48
2022-11-25T18:10:51.835Z,7.48
2022-11-25T18:11:51.866Z,7.48
2022-11-25T18:12:51.785Z,7.46
2022-11-25T18:13:51.793Z,7.48
2022-11-25T18:14:51.762Z,7.46
2022-11-25T18:15:51.782Z,7.48
2022-11-25T18:16:51.791Z,7.46
2022-11-25T18:17:51.814Z,7.46